Latest Weather Observations for Swan Island

IDT60801

Issued at 10:51 am EST Tuesday 26 May 2020 (issued every 10 minutes, with the page automatically refreshed every 10 minutes)

About weather observations | Map of weather stations | Latest weather observations for TAS | Other Formats
Station Details ID: 092123 Name: SWAN ISLAND Lat: -40.73 Lon: 148.12 Height: 15.0 m
Data from the previous 72 hours. | See also: Recent months at Swan Island
Date/Time
EST
Temp
°C
App
Temp
°C
Dew
Point
°C
Rel
Hum
%
Delta-T
°C
Wind Press
QNH
hPa
Press
MSL
hPa
Rain since
9am
mm
Dir  Spd
km/h
Gust
km/h
Spd
kts
Gust
kts
26/10:30am 13.3 10.0 8.2 71 2.5 E 15 24 8 13 1028.6 1028.6 0.0
26/10:00am 13.4 10.4 7.8 69 2.7 E 13 15 7 8 1028.6 1028.6 0.0
26/09:30am 13.0 8.7 7.2 68 2.8 E 19 24 10 13 1028.6 1028.6 0.0
26/09:00am 13.0 10.4 7.9 71 2.5 NE 11 13 6 7 1028.8 1028.8 0.0
26/08:30am 12.8 9.9 8.1 73 2.3 ENE 13 20 7 11 1028.6 1028.6 0.0
26/08:00am 12.6 9.6 7.5 71 2.5 ENE 13 19 7 10 1028.6 1028.6 0.0
26/07:30am 12.3 9.9 7.2 71 2.5 ENE 9 15 5 8 1028.5 1028.5 0.0
26/07:00am 12.3 8.4 7.2 71 2.4 E 17 22 9 12 1028.5 1028.5 0.0
26/06:30am 12.4 10.1 7.3 71 2.5 NE 9 15 5 8 1028.4 1028.4 0.0
26/06:00am 12.2 9.1 7.1 71 2.4 NE 13 17 7 9 1028.1 1028.1 0.0
26/05:30am 11.6 9.9 8.5 81 1.5 S 7 13 4 7 1027.9 1027.9 0.0
26/05:00am 11.2 9.1 8.1 81 1.5 S 9 13 5 7 1027.8 1027.8 0.0
26/04:30am 11.1 8.1 7.8 80 1.6 S 13 17 7 9 1027.7 1027.7 0.0
26/04:00am 11.0 8.0 7.7 80 1.6 S 13 17 7 9 1027.7 1027.7 0.0
26/03:30am 11.0 7.6 7.7 80 1.6 S 15 20 8 11 1027.8 1027.8 0.0
26/03:00am 11.0 8.0 7.5 79 1.7 S 13 15 7 8 1027.8 1027.8 0.0
26/02:30am 11.3 8.7 7.8 79 1.7 S 11 17 6 9 1028.0 1028.0 0.0
26/02:00am 11.4 8.4 7.7 78 1.8 S 13 19 7 10 1028.0 1028.0 0.0
26/01:30am 11.3 8.3 7.6 78 1.8 S 13 17 7 9 1028.0 1028.0 0.0
26/01:00am 11.0 8.3 7.3 78 1.8 S 11 17 6 9 1028.1 1028.1 0.0
26/12:30am 11.0 7.9 7.1 77 1.9 S 13 17 7 9 1028.4 1028.4 0.0
26/12:00am 11.1 8.0 7.2 77 1.9 S 13 19 7 10 1028.6 1028.6 0.0
 
Date/Time
EST
Temp
°C
App
Temp
°C
Dew
Point
°C
Rel
Hum
%
Delta-T
°C
Wind Press
QNH
hPa
Press
MSL
hPa
Rain since
9am
mm
Dir  Spd
km/h
Gust
km/h
Spd
kts
Gust
kts
25/11:30pm 11.1 8.3 7.0 76 2.0 S 11 15 6 8 1028.6 1028.6 0.0
25/11:00pm 11.0 7.8 6.7 75 2.0 S 13 22 7 12 1028.8 1028.8 0.0
25/10:30pm 10.9 7.7 6.8 76 1.9 S 13 20 7 11 1028.9 1028.9 0.0
25/10:00pm 10.8 7.2 6.9 77 1.8 S 15 22 8 12 1029.0 1029.0 0.0
25/09:30pm 10.7 6.8 7.0 78 1.8 S 17 22 9 12 1029.0 1029.0 0.0
25/09:00pm 10.6 7.5 7.1 79 1.7 S 13 17 7 9 1029.0 1029.0 0.0
25/08:30pm 10.6 7.2 7.5 81 1.5 S 15 20 8 11 1029.1 1029.1 0.0
25/08:00pm 10.6 7.6 7.5 81 1.5 S 13 19 7 10 1028.9 1028.9 0.0
25/07:30pm 10.3 7.2 7.2 81 1.5 S 13 20 7 11 1028.6 1028.6 0.0
25/07:00pm 10.4 6.9 7.3 81 1.5 S 15 20 8 11 1028.2 1028.2 0.0
25/06:30pm 11.1 7.3 7.6 79 1.7 S 17 22 9 12 1028.0 1028.0 0.0
25/06:00pm 11.2 7.0 7.3 77 1.9 SSE 19 28 10 15 1027.5 1027.5 0.0
25/05:30pm 11.3 7.0 6.8 74 2.1 S 19 26 10 14 1027.2 1027.2 0.0
25/05:00pm 11.4 7.1 7.1 75 2.0 S 19 24 10 13 1026.9 1026.9 0.0
25/04:30pm 11.6 7.2 7.5 76 2.0 SSE 20 30 11 16 1026.8 1026.8 0.0
25/04:00pm 11.7 7.4 7.8 77 1.9 SSE 20 30 11 16 1026.7 1026.7 0.0
25/03:30pm 11.8 7.1 7.7 76 2.0 SSE 22 32 12 17 1026.4 1026.4 0.0
25/03:00pm 12.2 7.5 7.7 74 2.2 SSE 22 30 12 16 1026.1 1026.1 0.0
25/02:30pm 12.3 7.6 7.6 73 2.3 SSE 22 30 12 16 1026.1 1026.1 0.0
25/02:00pm 12.3 7.6 7.8 74 2.2 SE 22 32 12 17 1026.2 1026.2 0.0
25/01:30pm 12.2 7.8 7.5 73 2.3 SSE 20 32 11 17 1026.4 1026.4 0.0
25/01:00pm 12.1 7.7 7.4 73 2.3 S 20 28 11 15 1026.6 1026.6 0.0
25/12:30pm 11.9 7.0 7.0 72 2.3 S 22 30 12 16 1026.7 1026.7 0.0
25/12:00pm 11.5 6.9 6.6 72 2.3 S 20 28 11 15 1027.1 1027.1 0.0
25/11:30am 12.2 7.1 7.5 73 2.3 SSE 24 30 13 16 1027.6 1027.6 0.0
25/11:00am 11.4 5.7 6.5 72 2.3 SSE 26 32 14 17 1027.4 1027.4 0.0
25/10:30am 11.3 6.3 6.6 73 2.2 S 22 37 12 20 1027.6 1027.6 0.0
25/10:00am 10.7 6.5 5.9 72 2.2 S 17 26 9 14 1027.7 1027.7 0.0
25/09:30am 10.3 6.5 5.7 73 2.1 S 15 26 8 14 1027.3 1027.3 0.0
25/09:00am 9.9 6.1 5.7 75 1.9 S 15 28 8 15 1027.1 1027.1 0.0
25/08:30am 9.3 5.0 5.1 75 1.9 SSW 17 28 9 15 1027.0 1027.0 0.0
25/08:00am 9.0 4.6 5.0 76 1.8 SSW 17 26 9 14 1026.9 1026.9 0.0
25/07:30am 9.1 4.4 5.1 76 1.8 SSW 19 26 10 14 1026.6 1026.6 0.0
25/07:00am 9.0 4.2 4.8 75 1.9 SSW 19 28 10 15 1026.4 1026.4 0.0
25/06:30am 8.9 4.1 4.9 76 1.8 SSW 19 28 10 15 1026.0 1026.0 0.0
25/06:00am 8.8 3.8 4.8 76 1.8 SSW 20 35 11 19 1025.6 1025.6 0.0
25/05:30am 9.1 4.2 5.1 76 1.8 S 20 35 11 19 1025.6 1025.6 0.0
25/05:00am 8.8 3.5 4.8 76 1.8 S 22 32 12 17 1025.2 1025.2 0.0
25/04:30am 9.1 3.8 4.9 75 1.9 S 22 35 12 19 1025.3 1025.3 0.0
25/04:00am 9.0 3.7 5.0 76 1.8 S 22 39 12 21 1025.1 1025.1 0.0
25/03:30am 9.1 3.8 5.1 76 1.8 S 22 32 12 17 1025.2 1025.2 0.0
25/03:00am 9.1 4.4 5.1 76 1.8 S 19 28 10 15 1025.3 1025.3 0.0
25/02:30am 9.2 4.4 5.4 77 1.7 S 20 32 11 17 1025.3 1025.3 0.0
25/02:00am 9.2 4.5 5.2 76 1.8 S 19 28 10 15 1025.3 1025.3 0.0
25/01:30am 9.2 4.5 5.0 75 1.9 S 19 30 10 16 1025.3 1025.3 0.0
25/01:00am 9.3 5.3 5.1 75 1.9 SSW 15 24 8 13 1025.4 1025.4 0.0
25/12:30am 9.5 4.6 4.9 73 2.1 SSW 20 33 11 18 1025.5 1025.5 0.0
25/12:00am 9.5 4.7 4.9 73 2.0 SSW 19 28 10 15 1025.2 1025.2 0.0
 
Date/Time
EST
Temp
°C
App
Temp
°C
Dew
Point
°C
Rel
Hum
%
Delta-T
°C
Wind Press
QNH
hPa
Press
MSL
hPa
Rain since
9am
mm
Dir  Spd
km/h
Gust
km/h
Spd
kts
Gust
kts
24/11:30pm 9.6 4.9 5.2 74 2.0 SSW 19 30 10 16 1025.1 1025.1 0.0
24/11:00pm 9.7 5.0 5.3 74 2.0 SSW 19 26 10 14 1025.0 1025.0 0.0
24/10:30pm 9.7 5.4 5.1 73 2.1 SSW 17 24 9 13 1024.9 1024.9 0.0
24/10:00pm 9.8 5.1 5.2 73 2.1 S 19 28 10 15 1024.8 1024.8 0.0
24/09:30pm 9.9 5.0 5.3 73 2.1 S 20 33 11 18 1024.6 1024.6 0.0
24/09:00pm 9.9 5.2 5.3 73 2.1 S 19 28 10 15 1024.3 1024.3 0.0
24/08:30pm 10.2 5.4 5.8 74 2.0 S 20 28 11 15 1024.3 1024.3 0.0
24/08:00pm 10.6 6.1 6.0 73 2.1 S 19 28 10 15 1024.1 1024.1 0.0
24/07:30pm 10.6 5.1 6.0 73 2.1 S 24 33 13 18 1023.9 1023.9 0.0
24/07:00pm 11.0 3.1 6.2 72 2.2 SSE 37 46 20 25 1023.7 1023.7 0.0
24/06:30pm 11.1 3.7 6.8 75 2.0 SSE 35 46 19 25 1023.4 1023.4 0.0
24/06:00pm 11.0 2.8 6.4 73 2.1 SSE 39 50 21 27 1023.0 1023.0 0.0
24/05:30pm 11.4 3.3 7.1 75 2.1 SSE 39 50 21 27 1022.6 1022.6 0.0
24/05:00pm 11.6 4.2 6.9 73 2.2 SSE 35 46 19 25 1022.4 1022.4 0.0
24/04:30pm 12.2 6.3 7.7 74 2.2 SSE 28 39 15 21 1022.1 1022.1 0.0
24/04:00pm 12.8 7.1 8.3 74 2.2 SSE 28 35 15 19 1021.8 1021.8 0.0
24/03:30pm 13.4 8.9 8.5 72 2.4 SE 22 32 12 17 1021.6 1021.6 0.0
24/03:00pm 14.0 9.7 7.8 66 3.1 SSE 20 30 11 16 1021.1 1021.1 0.0
24/02:30pm 14.0 9.6 7.5 65 3.2 S 20 28 11 15 1020.8 1020.8 0.0
24/02:00pm 13.7 8.2 7.5 66 3.0 SSE 26 33 14 18 1020.7 1020.7 0.0
24/01:30pm 14.1 7.8 7.6 65 3.2 SSE 30 37 16 20 1020.7 1020.7 0.0
24/01:00pm 14.3 10.1 7.6 64 3.3 S 19 30 10 16 1020.7 1020.7 0.0
24/12:30pm 13.6 8.3 6.9 64 3.2 S 24 32 13 17 1020.8 1020.8 0.0
24/12:00pm 13.8 9.5 8.0 68 2.9 S 20 30 11 16 1020.9 1020.9 0.0
24/11:30am 13.0 9.1 7.2 68 2.8 S 17 28 9 15 1021.3 1021.3 0.0
24/11:00am 12.9 8.6 7.1 68 2.8 S 19 28 10 15 1021.5 1021.5 0.0
24/10:30am 12.5 8.5 6.5 67 2.9 S 17 28 9 15 1021.6 1021.6 0.0
24/10:00am 11.5 7.7 5.6 67 2.7 SSW 15 20 8 11 1021.4 1021.4 0.0
24/09:30am 11.3 7.8 5.4 67 2.7 SSW 13 19 7 10 1021.2 1021.2 0.0
24/09:00am 10.7 7.6 5.5 70 2.4 SSW 11 20 6 11 1021.0 1021.0 0.0
24/08:30am 9.3 6.4 4.9 74 2.0 SW 9 15 5 8 1020.7 1020.7 0.0
24/08:00am 9.4 6.5 4.6 72 2.1 SW 9 17 5 9 1020.4 1020.4 0.0
24/07:30am 9.2 5.9 4.8 74 2.0 SSW 11 17 6 9 1020.2 1020.2 0.0
24/07:00am 9.1 6.1 4.3 72 2.1 SW 9 13 5 7 1019.9 1019.9 0.0
24/06:30am 9.1 6.1 4.3 72 2.1 SSW 9 17 5 9 1019.4 1019.4 0.0
24/06:00am 9.6 6.2 3.8 67 2.5 SSW 11 19 6 10 1019.1 1019.1 0.0
24/05:30am 9.8 5.5 3.5 65 2.7 SSW 15 24 8 13 1018.8 1018.8 0.0
24/05:00am 10.0 6.1 3.3 63 2.9 SW 13 20 7 11 1018.6 1018.6 0.0
24/04:30am 10.6 5.0 3.6 62 3.1 S 22 35 12 19 1018.5 1018.5 0.0
24/04:00am 10.3 3.3 4.0 65 2.8 SSE 30 41 16 22 1018.3 1018.3 0.0
24/03:30am 10.4 1.7 4.1 65 2.8 SSE 39 50 21 27 1018.1 1018.1 0.0
24/03:00am 10.6 4.1 4.9 68 2.6 S 28 37 15 20 1017.9 1017.9 0.0
24/02:30am 10.6 5.8 4.9 68 2.6 S 19 30 10 16 1017.9 1017.9 0.0
24/02:00am 9.9 5.6 5.1 72 2.2 S 17 24 9 13 1018.0 1018.0 0.0
24/01:30am 10.4 6.5 5.2 70 2.4 SSW 15 24 8 13 1017.8 1017.8 0.0
24/01:00am 10.5 6.9 5.1 69 2.4 SSW 13 20 7 11 1017.7 1017.7 0.0
24/12:30am 10.4 6.5 5.2 70 2.4 SSW 15 24 8 13 1017.6 1017.6 0.0
24/12:00am 10.5 7.5 6.1 74 2.0 S 11 17 6 9 1017.5 1017.5 0.0
 
Date/Time
EST
Temp
°C
App
Temp
°C
Dew
Point
°C
Rel
Hum
%
Delta-T
°C
Wind Press
QNH
hPa
Press
MSL
hPa
Rain since
9am
mm
Dir  Spd
km/h
Gust
km/h
Spd
kts
Gust
kts
23/11:30pm 10.7 7.8 6.3 74 2.1 S 11 17 6 9 1017.5 1017.5 0.0
23/11:00pm 10.8 6.8 6.6 75 2.0 SSE 17 22 9 12 1017.4 1017.4 0.0
23/10:30pm 10.9 7.4 7.0 77 1.9 S 15 24 8 13 1017.2 1017.2 0.0
23/10:00pm 11.3 7.1 7.4 77 1.9 SSE 19 24 10 13 1017.0 1017.0 0.0
23/09:30pm 11.4 8.1 7.9 79 1.7 S 15 20 8 11 1016.7 1016.7 0.0
23/09:00pm 10.8 9.1 8.2 84 1.3 SW 7 9 4 5 1016.4 1016.4 0.0
23/08:30pm 10.7 9.0 8.3 85 1.2 WSW 7 11 4 6 1016.1 1016.1 0.0
23/08:00pm 9.9 7.9 7.2 83 1.3 WSW 7 11 4 6 1015.8 1015.8 0.0
23/07:30pm 10.6 8.8 7.8 83 1.4 WSW 7 9 4 5 1015.8 1015.8 0.0
23/07:00pm 11.0 9.1 7.7 80 1.6 WSW 7 9 4 5 1015.5 1015.5 0.0
23/06:30pm 11.2 8.8 7.1 76 2.0 WSW 9 13 5 7 1015.4 1015.4 0.0
23/06:00pm 11.4 9.0 6.9 74 2.1 WSW 9 15 5 8 1015.1 1015.1 0.0
23/05:30pm 12.0 9.0 7.5 74 2.2 WSW 13 17 7 9 1015.0 1015.0 0.0
23/05:00pm 12.4 9.8 7.9 74 2.2 SSW 11 19 6 10 1014.6 1014.6 0.0
23/04:30pm 12.7 6.9 7.8 72 2.4 SSE 28 37 15 20 1014.4 1014.4 0.0
23/04:00pm 12.7 7.0 8.2 74 2.2 SSE 28 37 15 20 1014.5 1014.5 0.0
23/03:30pm 12.8 6.8 8.5 75 2.1 SSE 30 39 16 21 1014.2 1014.2 0.0
23/03:00pm 13.2 7.3 8.9 75 2.2 SSE 30 37 16 20 1014.1 1014.1 0.0
23/02:30pm 13.3 7.3 8.8 74 2.3 SE 30 39 16 21 1014.2 1014.2 0.0
23/02:00pm 13.4 8.0 8.0 70 2.7 SSE 26 33 14 18 1014.1 1014.1 0.0
23/01:30pm 13.7 8.3 8.1 69 2.8 SSE 26 35 14 19 1014.2 1014.2 0.0
23/01:00pm 13.9 9.0 8.3 69 2.8 SSE 24 32 13 17 1014.3 1014.3 0.0
23/12:30pm 13.3 7.3 6.9 65 3.1 SSE 28 35 15 19 1014.7 1014.7 0.0
23/12:00pm 13.3 7.6 6.9 65 3.1 SSE 26 33 14 18 1015.2 1015.2 0.0
23/11:30am 13.1 7.5 7.1 67 2.9 SE 26 33 14 18 1015.5 1015.5 0.0
23/11:00am 12.8 7.5 6.8 67 2.9 SSE 24 32 13 17 1015.7 1015.7 0.0

Other formats

Comma delimited format used in spreadsheet applications
http://www.bom.gov.au/fwo/IDT60801/IDT60801.95985.axf

JavaScript Object Notation format (JSON) in row-major order
http://www.bom.gov.au/fwo/IDT60801/IDT60801.95985.json

Data quality

Most of these data are generated automatically and are frequently updated. Quality checks on data are not normally performed. It is possible for incorrect values to appear. Refer to information at About Latest Weather Observations and please check the disclaimer before using these data.